sensor_id;sensor_type;location;lat;lon;timestamp;pressure;altitude;pressure_sealevel;temperature;humidity
25722;BME280;13578;53.450;15.496;2023-03-25T00:00:56;98354.19;;;7.02;100.00
25722;BME280;13578;53.450;15.496;2023-03-25T00:03:59;98348.72;;;7.02;100.00
25722;BME280;13578;53.450;15.496;2023-03-25T00:07:00;98346.28;;;6.99;100.00
25722;BME280;13578;53.450;15.496;2023-03-25T00:10:01;98332.75;;;7.07;100.00
25722;BME280;13578;53.450;15.496;2023-03-25T00:13:02;98335.75;;;6.86;100.00
25722;BME280;13578;53.450;15.496;2023-03-25T00:16:05;98336.44;;;6.88;100.00
25722;BME280;13578;53.450;15.496;2023-03-25T00:19:06;98322.25;;;6.84;100.00
25722;BME280;13578;53.450;15.496;2023-03-25T00:22:08;98324.38;;;6.91;100.00
25722;BME280;13578;53.450;15.496;2023-03-25T00:25:12;98324.97;;;6.84;100.00
25722;BME280;13578;53.450;15.496;2023-03-25T00:28:16;98343.78;;;6.88;100.00
25722;BME280;13578;53.450;15.496;2023-03-25T00:31:16;98334.06;;;6.75;100.00
25722;BME280;13578;53.450;15.496;2023-03-25T00:34:17;98344.66;;;6.78;100.00
25722;BME280;13578;53.450;15.496;2023-03-25T00:37:19;98356.09;;;6.92;100.00
25722;BME280;13578;53.450;15.496;2023-03-25T00:40:20;98354.72;;;6.78;100.00
25722;BME280;13578;53.450;15.496;2023-03-25T00:43:21;98364.72;;;6.87;100.00
25722;BME280;13578;53.450;15.496;2023-03-25T00:46:23;98357.81;;;6.93;100.00
25722;BME280;13578;53.450;15.496;2023-03-25T00:49:26;98369.28;;;6.96;100.00
25722;BME280;13578;53.450;15.496;2023-03-25T00:52:28;98373.22;;;6.84;100.00
25722;BME280;13578;53.450;15.496;2023-03-25T00:55:29;98367.81;;;6.74;100.00
25722;BME280;13578;53.450;15.496;2023-03-25T00:58:29;98367.94;;;6.73;100.00
25722;BME280;13578;53.450;15.496;2023-03-25T01:01:30;98372.81;;;6.69;100.00
25722;BME280;13578;53.450;15.496;2023-03-25T01:04:31;98373.53;;;6.71;100.00
25722;BME280;13578;53.450;15.496;2023-03-25T01:07:31;98369.53;;;6.75;100.00
25722;BME280;13578;53.450;15.496;2023-03-25T01:10:35;98375.09;;;6.74;100.00
25722;BME280;13578;53.450;15.496;2023-03-25T01:13:36;98387.88;;;6.73;100.00
25722;BME280;13578;53.450;15.496;2023-03-25T01:16:36;98366.38;;;6.70;100.00
25722;BME280;13578;53.450;15.496;2023-03-25T01:19:37;98381.13;;;6.77;100.00
25722;BME280;13578;53.450;15.496;2023-03-25T01:22:38;98378.66;;;6.84;100.00
25722;BME280;13578;53.450;15.496;2023-03-25T01:25:39;98387.56;;;6.86;100.00
25722;BME280;13578;53.450;15.496;2023-03-25T01:28:43;98375.53;;;6.79;100.00
25722;BME280;13578;53.450;15.496;2023-03-25T01:31:45;98381.56;;;6.82;100.00
25722;BME280;13578;53.450;15.496;2023-03-25T01:34:45;98376.09;;;6.73;100.00
25722;BME280;13578;53.450;15.496;2023-03-25T01:37:47;98389.19;;;6.79;100.00
25722;BME280;13578;53.450;15.496;2023-03-25T01:40:49;98381.16;;;6.67;100.00
25722;BME280;13578;53.450;15.496;2023-03-25T01:47:30;98380.03;;;6.60;100.00
25722;BME280;13578;53.450;15.496;2023-03-25T01:50:34;98376.63;;;6.48;100.00
25722;BME280;13578;53.450;15.496;2023-03-25T01:53:36;98372.88;;;6.49;100.00
25722;BME280;13578;53.450;15.496;2023-03-25T01:56:39;98375.03;;;6.46;100.00
25722;BME280;13578;53.450;15.496;2023-03-25T01:59:41;98375.63;;;6.40;100.00
25722;BME280;13578;53.450;15.496;2023-03-25T02:02:42;98372.34;;;6.36;100.00
25722;BME280;13578;53.450;15.496;2023-03-25T02:05:53;98363.16;;;6.37;100.00
25722;BME280;13578;53.450;15.496;2023-03-25T02:08:57;98377.78;;;6.46;100.00
25722;BME280;13578;53.450;15.496;2023-03-25T02:11:58;98373.78;;;6.30;100.00
25722;BME280;13578;53.450;15.496;2023-03-25T02:15:01;98363.19;;;6.27;100.00
25722;BME280;13578;53.450;15.496;2023-03-25T02:18:21;98367.19;;;6.33;100.00
25722;BME280;13578;53.450;15.496;2023-03-25T02:21:39;98371.63;;;6.34;100.00
25722;BME280;13578;53.450;15.496;2023-03-25T02:32:19;98360.69;;;6.44;100.00
25722;BME280;13578;53.450;15.496;2023-03-25T02:38:28;98332.75;;;6.32;100.00
25722;BME280;13578;53.450;15.496;2023-03-25T02:41:49;98339.34;;;6.39;100.00
25722;BME280;13578;53.450;15.496;2023-03-25T02:45:05;98336.75;;;6.47;100.00
25722;BME280;13578;53.450;15.496;2023-03-25T02:48:19;98334.31;;;6.44;100.00
25722;BME280;13578;53.450;15.496;2023-03-25T02:51:27;98323.31;;;6.36;100.00
25722;BME280;13578;53.450;15.496;2023-03-25T02:54:30;98325.31;;;6.34;100.00
25722;BME280;13578;53.450;15.496;2023-03-25T02:57:34;98330.03;;;6.32;100.00
25722;BME280;13578;53.450;15.496;2023-03-25T03:00:38;98323.31;;;6.36;100.00
25722;BME280;13578;53.450;15.496;2023-03-25T03:03:39;98320.25;;;6.39;100.00
25722;BME280;13578;53.450;15.496;2023-03-25T03:06:41;98316.41;;;6.32;100.00
25722;BME280;13578;53.450;15.496;2023-03-25T03:09:51;98300.97;;;6.23;100.00
25722;BME280;13578;53.450;15.496;2023-03-25T03:16:21;98294.69;;;6.12;100.00
25722;BME280;13578;53.450;15.496;2023-03-25T03:19:37;98299.25;;;6.22;100.00
25722;BME280;13578;53.450;15.496;2023-03-25T03:22:58;98285.22;;;6.16;100.00
25722;BME280;13578;53.450;15.496;2023-03-25T03:26:13;98284.38;;;6.06;100.00
25722;BME280;13578;53.450;15.496;2023-03-25T03:35:48;98265.59;;;5.93;100.00
25722;BME280;13578;53.450;15.496;2023-03-25T03:38:57;98289.25;;;6.02;100.00
25722;BME280;13578;53.450;15.496;2023-03-25T03:42:05;98280.19;;;5.92;100.00
25722;BME280;13578;53.450;15.496;2023-03-25T03:45:12;98279.94;;;5.85;100.00
25722;BME280;13578;53.450;15.496;2023-03-25T03:48:19;98273.75;;;5.93;100.00
25722;BME280;13578;53.450;15.496;2023-03-25T03:51:27;98264.84;;;5.91;100.00
25722;BME280;13578;53.450;15.496;2023-03-25T03:54:33;98258.41;;;5.92;100.00
25722;BME280;13578;53.450;15.496;2023-03-25T03:57:49;98264.91;;;6.01;100.00
25722;BME280;13578;53.450;15.496;2023-03-25T04:04:18;98259.44;;;6.11;100.00
25722;BME280;13578;53.450;15.496;2023-03-25T04:07:43;98261.75;;;6.06;100.00
25722;BME280;13578;53.450;15.496;2023-03-25T04:14:10;98232.22;;;6.01;100.00
25722;BME280;13578;53.450;15.496;2023-03-25T04:17:12;98248.25;;;6.04;100.00
25722;BME280;13578;53.450;15.496;2023-03-25T04:20:15;98244.81;;;6.12;100.00
25722;BME280;13578;53.450;15.496;2023-03-25T04:23:18;98242.38;;;6.09;100.00
25722;BME280;13578;53.450;15.496;2023-03-25T04:26:18;98239.06;;;6.05;100.00
25722;BME280;13578;53.450;15.496;2023-03-25T04:29:21;98232.78;;;5.95;100.00
25722;BME280;13578;53.450;15.496;2023-03-25T04:32:21;98253.97;;;6.11;100.00
25722;BME280;13578;53.450;15.496;2023-03-25T04:35:22;98247.09;;;6.07;100.00
25722;BME280;13578;53.450;15.496;2023-03-25T04:38:25;98242.63;;;6.15;100.00
25722;BME280;13578;53.450;15.496;2023-03-25T04:41:26;98235.47;;;6.14;100.00
25722;BME280;13578;53.450;15.496;2023-03-25T04:44:31;98240.03;;;6.14;100.00
25722;BME280;13578;53.450;15.496;2023-03-25T04:47:39;98245.50;;;6.24;100.00
25722;BME280;13578;53.450;15.496;2023-03-25T04:50:44;98255.94;;;6.18;100.00
25722;BME280;13578;53.450;15.496;2023-03-25T04:53:44;98245.97;;;6.09;100.00
25722;BME280;13578;53.450;15.496;2023-03-25T04:56:46;98237.50;;;6.02;100.00
25722;BME280;13578;53.450;15.496;2023-03-25T04:59:48;98245.78;;;6.20;100.00
25722;BME280;13578;53.450;15.496;2023-03-25T05:02:52;98243.34;;;6.17;100.00
25722;BME280;13578;53.450;15.496;2023-03-25T05:05:53;98237.59;;;6.20;100.00
25722;BME280;13578;53.450;15.496;2023-03-25T05:08:53;98251.75;;;6.34;100.00
25722;BME280;13578;53.450;15.496;2023-03-25T05:11:54;98252.47;;;6.36;100.00
25722;BME280;13578;53.450;15.496;2023-03-25T05:14:55;98256.34;;;6.33;100.00
25722;BME280;13578;53.450;15.496;2023-03-25T05:17:56;98249.28;;;6.41;100.00
25722;BME280;13578;53.450;15.496;2023-03-25T05:20:56;98246.81;;;6.47;100.00
25722;BME280;13578;53.450;15.496;2023-03-25T05:23:59;98245.50;;;6.51;100.00
25722;BME280;13578;53.450;15.496;2023-03-25T05:27:00;98253.25;;;6.56;100.00
25722;BME280;13578;53.450;15.496;2023-03-25T05:30:02;98251.47;;;6.65;100.00
25722;BME280;13578;53.450;15.496;2023-03-25T05:33:02;98245.00;;;6.66;100.00
25722;BME280;13578;53.450;15.496;2023-03-25T05:36:03;98252.13;;;6.77;100.00
25722;BME280;13578;53.450;15.496;2023-03-25T05:39:05;98267.31;;;6.79;100.00
25722;BME280;13578;53.450;15.496;2023-03-25T05:42:05;98268.81;;;6.92;100.00
25722;BME280;13578;53.450;15.496;2023-03-25T05:45:08;98266.25;;;6.90;100.00
25722;BME280;13578;53.450;15.496;2023-03-25T05:48:09;98279.19;;;6.88;100.00
25722;BME280;13578;53.450;15.496;2023-03-25T05:51:15;98281.50;;;6.83;100.00
25722;BME280;13578;53.450;15.496;2023-03-25T05:54:16;98282.06;;;6.87;100.00
25722;BME280;13578;53.450;15.496;2023-03-25T05:57:18;98284.00;;;6.94;100.00
25722;BME280;13578;53.450;15.496;2023-03-25T06:00:19;98284.00;;;6.94;100.00
25722;BME280;13578;53.450;15.496;2023-03-25T06:03:20;98284.78;;;6.87;100.00
25722;BME280;13578;53.450;15.496;2023-03-25T06:06:21;98281.34;;;6.84;100.00
25722;BME280;13578;53.450;15.496;2023-03-25T06:09:25;98283.84;;;6.78;100.00
25722;BME280;13578;53.450;15.496;2023-03-25T06:12:25;98274.38;;;6.72;100.00
25722;BME280;13578;53.450;15.496;2023-03-25T06:15:26;98265.50;;;6.70;100.00
25722;BME280;13578;53.450;15.496;2023-03-25T06:18:32;98273.38;;;6.73;100.00
25722;BME280;13578;53.450;15.496;2023-03-25T06:21:33;98272.28;;;6.66;100.00
25722;BME280;13578;53.450;15.496;2023-03-25T06:24:35;98277.72;;;6.66;100.00
25722;BME280;13578;53.450;15.496;2023-03-25T06:27:36;98268.53;;;6.67;100.00
25722;BME280;13578;53.450;15.496;2023-03-25T06:30:41;98267.66;;;6.66;100.00
25722;BME280;13578;53.450;15.496;2023-03-25T06:33:46;98276.41;;;6.70;100.00
25722;BME280;13578;53.450;15.496;2023-03-25T06:36:47;98268.94;;;6.72;100.00
25722;BME280;13578;53.450;15.496;2023-03-25T06:39:49;98254.03;;;6.66;100.00
25722;BME280;13578;53.450;15.496;2023-03-25T06:42:50;98255.59;;;6.69;100.00
25722;BME280;13578;53.450;15.496;2023-03-25T06:45:50;98264.84;;;6.86;100.00
25722;BME280;13578;53.450;15.496;2023-03-25T06:48:51;98255.63;;;6.87;100.00
25722;BME280;13578;53.450;15.496;2023-03-25T06:51:52;98254.78;;;6.87;100.00
25722;BME280;13578;53.450;15.496;2023-03-25T06:54:52;98247.25;;;6.98;100.00
25722;BME280;13578;53.450;15.496;2023-03-25T06:57:54;98249.53;;;7.03;100.00
25722;BME280;13578;53.450;15.496;2023-03-25T07:00:55;98248.03;;;7.09;100.00
25722;BME280;13578;53.450;15.496;2023-03-25T07:03:56;98245.00;;;6.94;100.00
25722;BME280;13578;53.450;15.496;2023-03-25T07:06:57;98237.25;;;6.89;100.00
25722;BME280;13578;53.450;15.496;2023-03-25T07:09:57;98246.63;;;6.87;100.00
25722;BME280;13578;53.450;15.496;2023-03-25T07:12:58;98238.72;;;6.83;100.00
25722;BME280;13578;53.450;15.496;2023-03-25T07:16:00;98231.03;;;6.79;100.00
25722;BME280;13578;53.450;15.496;2023-03-25T07:19:01;98239.59;;;6.84;100.00
25722;BME280;13578;53.450;15.496;2023-03-25T07:22:01;98245.78;;;6.86;100.00
25722;BME280;13578;53.450;15.496;2023-03-25T07:25:02;98230.97;;;6.89;100.00
25722;BME280;13578;53.450;15.496;2023-03-25T07:28:03;98222.47;;;6.92;100.00
25722;BME280;13578;53.450;15.496;2023-03-25T07:31:10;98240.25;;;6.96;100.00
25722;BME280;13578;53.450;15.496;2023-03-25T07:34:11;98238.47;;;7.05;100.00
25722;BME280;13578;53.450;15.496;2023-03-25T07:37:12;98233.16;;;7.03;100.00
25722;BME280;13578;53.450;15.496;2023-03-25T07:40:13;98235.13;;;7.29;100.00
25722;BME280;13578;53.450;15.496;2023-03-25T07:43:13;98231.69;;;7.63;100.00
25722;BME280;13578;53.450;15.496;2023-03-25T07:46:14;98236.06;;;8.00;100.00
25722;BME280;13578;53.450;15.496;2023-03-25T07:49:15;98233.22;;;8.10;100.00
25722;BME280;13578;53.450;15.496;2023-03-25T07:52:16;98242.16;;;7.94;100.00
25722;BME280;13578;53.450;15.496;2023-03-25T07:55:17;98263.38;;;8.00;100.00
25722;BME280;13578;53.450;15.496;2023-03-25T07:58:18;98269.94;;;8.07;100.00
25722;BME280;13578;53.450;15.496;2023-03-25T08:01:19;98258.94;;;7.99;100.00
25722;BME280;13578;53.450;15.496;2023-03-25T08:04:20;98277.41;;;8.05;100.00
25722;BME280;13578;53.450;15.496;2023-03-25T08:07:20;98280.16;;;8.05;100.00
25722;BME280;13578;53.450;15.496;2023-03-25T08:10:21;98270.13;;;8.14;100.00
25722;BME280;13578;53.450;15.496;2023-03-25T08:13:22;98285.16;;;8.36;100.00
25722;BME280;13578;53.450;15.496;2023-03-25T08:16:23;98272.50;;;8.35;100.00
25722;BME280;13578;53.450;15.496;2023-03-25T08:19:24;98284.41;;;8.52;100.00
25722;BME280;13578;53.450;15.496;2023-03-25T08:22:27;98288.03;;;8.61;100.00
25722;BME280;13578;53.450;15.496;2023-03-25T08:25:29;98290.41;;;8.56;100.00
25722;BME280;13578;53.450;15.496;2023-03-25T08:28:30;98292.78;;;8.51;100.00
25722;BME280;13578;53.450;15.496;2023-03-25T08:31:32;98287.06;;;8.44;100.00
25722;BME280;13578;53.450;15.496;2023-03-25T08:34:32;98291.06;;;8.50;100.00
25722;BME280;13578;53.450;15.496;2023-03-25T08:37:38;98294.88;;;8.57;100.00
25722;BME280;13578;53.450;15.496;2023-03-25T08:40:41;98289.16;;;8.50;100.00
25722;BME280;13578;53.450;15.496;2023-03-25T08:43:43;98306.88;;;8.64;100.00
25722;BME280;13578;53.450;15.496;2023-03-25T08:46:43;98291.69;;;8.78;100.00
25722;BME280;13578;53.450;15.496;2023-03-25T08:49:44;98307.09;;;8.79;100.00
25722;BME280;13578;53.450;15.496;2023-03-25T08:52:44;98314.09;;;8.73;100.00
25722;BME280;13578;53.450;15.496;2023-03-25T08:55:45;98311.19;;;8.75;100.00
25722;BME280;13578;53.450;15.496;2023-03-25T08:58:46;98310.84;;;8.78;100.00
25722;BME280;13578;53.450;15.496;2023-03-25T09:01:46;98313.28;;;8.81;100.00
25722;BME280;13578;53.450;15.496;2023-03-25T09:04:48;98308.34;;;8.85;100.00
25722;BME280;13578;53.450;15.496;2023-03-25T09:07:48;98314.31;;;8.88;100.00
25722;BME280;13578;53.450;15.496;2023-03-25T09:10:49;98318.97;;;8.96;100.00
25722;BME280;13578;53.450;15.496;2023-03-25T09:13:50;98320.72;;;9.05;100.00
25722;BME280;13578;53.450;15.496;2023-03-25T09:16:51;98306.91;;;9.15;100.00
25722;BME280;13578;53.450;15.496;2023-03-25T09:19:51;98319.09;;;9.29;100.00
25722;BME280;13578;53.450;15.496;2023-03-25T09:22:52;98321.47;;;9.16;100.00
25722;BME280;13578;53.450;15.496;2023-03-25T09:25:53;98324.19;;;9.16;100.00
25722;BME280;13578;53.450;15.496;2023-03-25T09:28:56;98325.81;;;9.35;100.00
25722;BME280;13578;53.450;15.496;2023-03-25T09:31:57;98344.47;;;9.48;100.00
25722;BME280;13578;53.450;15.496;2023-03-25T09:34:58;98354.19;;;9.34;100.00
25722;BME280;13578;53.450;15.496;2023-03-25T09:37:59;98351.72;;;9.65;100.00
25722;BME280;13578;53.450;15.496;2023-03-25T09:41:11;98360.97;;;9.73;100.00
25722;BME280;13578;53.450;15.496;2023-03-25T09:50:54;98349.31;;;9.70;100.00
25722;BME280;13578;53.450;15.496;2023-03-25T09:54:12;98341.47;;;9.92;100.00
25722;BME280;13578;53.450;15.496;2023-03-25T09:57:19;98342.69;;;10.06;100.00
25722;BME280;13578;53.450;15.496;2023-03-25T10:00:23;98359.81;;;10.25;100.00
25722;BME280;13578;53.450;15.496;2023-03-25T10:03:37;98344.94;;;10.27;100.00
25722;BME280;13578;53.450;15.496;2023-03-25T10:06:56;98351.75;;;10.15;100.00
25722;BME280;13578;53.450;15.496;2023-03-25T10:24:19;98338.56;;;10.35;100.00
25722;BME280;13578;53.450;15.496;2023-03-25T10:36:37;98321.78;;;10.05;100.00
25722;BME280;13578;53.450;15.496;2023-03-25T10:39:41;98319.75;;;9.99;100.00
25722;BME280;13578;53.450;15.496;2023-03-25T10:43:35;98332.06;;;10.03;100.00
25722;BME280;13578;53.450;15.496;2023-03-25T10:46:18;98329.84;;;10.15;100.00
25722;BME280;13578;53.450;15.496;2023-03-25T10:49:27;98310.84;;;10.13;100.00
25722;BME280;13578;53.450;15.496;2023-03-25T10:52:29;98305.53;;;10.12;100.00
25722;BME280;13578;53.450;15.496;2023-03-25T10:55:32;98312.19;;;10.17;100.00
25722;BME280;13578;53.450;15.496;2023-03-25T10:58:37;98317.66;;;10.26;100.00
25722;BME280;13578;53.450;15.496;2023-03-25T11:01:40;98311.34;;;10.33;100.00
25722;BME280;13578;53.450;15.496;2023-03-25T11:04:43;98315.28;;;10.39;100.00
25722;BME280;13578;53.450;15.496;2023-03-25T11:08:07;98315.06;;;10.65;100.00
25722;BME280;13578;53.450;15.496;2023-03-25T11:11:08;98295.72;;;10.51;100.00
25722;BME280;13578;53.450;15.496;2023-03-25T11:14:12;98321.09;;;10.53;100.00
25722;BME280;13578;53.450;15.496;2023-03-25T11:17:17;98296.94;;;10.48;100.00
25722;BME280;13578;53.450;15.496;2023-03-25T11:20:21;98308.41;;;10.68;100.00
25722;BME280;13578;53.450;15.496;2023-03-25T11:23:35;98287.97;;;10.71;100.00
25722;BME280;13578;53.450;15.496;2023-03-25T11:26:38;98286.25;;;10.78;100.00
25722;BME280;13578;53.450;15.496;2023-03-25T11:29:39;98285.13;;;10.95;100.00
25722;BME280;13578;53.450;15.496;2023-03-25T11:32:40;98298.44;;;11.47;100.00
25722;BME280;13578;53.450;15.496;2023-03-25T11:35:42;98267.19;;;11.71;100.00
25722;BME280;13578;53.450;15.496;2023-03-25T11:38:51;98266.16;;;11.72;100.00
25722;BME280;13578;53.450;15.496;2023-03-25T11:41:52;98280.88;;;12.26;100.00
25722;BME280;13578;53.450;15.496;2023-03-25T11:44:55;98269.75;;;12.19;100.00
25722;BME280;13578;53.450;15.496;2023-03-25T11:48:01;98270.81;;;11.95;100.00
25722;BME280;13578;53.450;15.496;2023-03-25T11:51:50;98259.88;;;11.86;100.00
25722;BME280;13578;53.450;15.496;2023-03-25T11:54:44;98231.13;;;11.74;100.00
25722;BME280;13578;53.450;15.496;2023-03-25T11:57:45;98251.06;;;11.91;100.00
25722;BME280;13578;53.450;15.496;2023-03-25T12:00:51;98233.75;;;11.44;100.00
25722;BME280;13578;53.450;15.496;2023-03-25T12:07:18;98259.19;;;11.38;100.00
25722;BME280;13578;53.450;15.496;2023-03-25T12:13:38;98252.00;;;11.37;100.00
25722;BME280;13578;53.450;15.496;2023-03-25T12:20:17;98234.22;;;11.48;100.00
25722;BME280;13578;53.450;15.496;2023-03-25T12:58:18;98230.75;;;11.31;100.00
25722;BME280;13578;53.450;15.496;2023-03-25T13:08:20;98207.06;;;11.99;100.00
25722;BME280;13578;53.450;15.496;2023-03-25T13:11:34;98180.81;;;11.50;100.00
25722;BME280;13578;53.450;15.496;2023-03-25T13:14:47;98187.31;;;11.34;100.00
25722;BME280;13578;53.450;15.496;2023-03-25T13:17:55;98186.66;;;11.47;100.00
25722;BME280;13578;53.450;15.496;2023-03-25T13:21:27;98176.41;;;11.41;100.00
25722;BME280;13578;53.450;15.496;2023-03-25T13:24:40;98177.88;;;11.28;100.00
25722;BME280;13578;53.450;15.496;2023-03-25T13:27:42;98201.69;;;11.36;100.00
25722;BME280;13578;53.450;15.496;2023-03-25T13:30:45;98197.72;;;11.16;100.00
25722;BME280;13578;53.450;15.496;2023-03-25T13:37:50;98182.75;;;10.95;100.00
25722;BME280;13578;53.450;15.496;2023-03-25T13:41:11;98208.22;;;10.72;100.00
25722;BME280;13578;53.450;15.496;2023-03-25T13:44:24;98221.28;;;10.62;100.00
25722;BME280;13578;53.450;15.496;2023-03-25T13:47:29;98277.06;;;10.38;100.00
25722;BME280;13578;53.450;15.496;2023-03-25T13:50:31;98265.09;;;9.89;100.00
25722;BME280;13578;53.450;15.496;2023-03-25T13:53:42;98297.44;;;9.69;100.00
25722;BME280;13578;53.450;15.496;2023-03-25T14:00:12;98283.13;;;9.08;100.00
25722;BME280;13578;53.450;15.496;2023-03-25T14:09:59;98248.13;;;9.52;100.00
25722;BME280;13578;53.450;15.496;2023-03-25T14:13:05;98235.63;;;9.42;100.00
25722;BME280;13578;53.450;15.496;2023-03-25T14:16:09;98236.50;;;9.42;100.00
25722;BME280;13578;53.450;15.496;2023-03-25T14:19:16;98222.47;;;9.29;100.00
25722;BME280;13578;53.450;15.496;2023-03-25T14:22:29;98242.63;;;9.28;100.00
25722;BME280;13578;53.450;15.496;2023-03-25T14:28:35;98283.81;;;9.10;100.00
25722;BME280;13578;53.450;15.496;2023-03-25T14:31:37;98265.50;;;8.67;100.00
25722;BME280;13578;53.450;15.496;2023-03-25T14:34:37;98257.06;;;8.52;100.00
25722;BME280;13578;53.450;15.496;2023-03-25T14:37:38;98231.16;;;8.38;100.00
25722;BME280;13578;53.450;15.496;2023-03-25T14:43:51;98242.19;;;8.89;100.00
25722;BME280;13578;53.450;15.496;2023-03-25T14:53:22;98240.31;;;8.55;100.00
25722;BME280;13578;53.450;15.496;2023-03-25T14:56:35;98247.03;;;8.61;100.00
25722;BME280;13578;53.450;15.496;2023-03-25T15:00:47;98235.03;;;8.54;100.00
25722;BME280;13578;53.450;15.496;2023-03-25T15:03:16;98238.78;;;8.53;100.00
25722;BME280;13578;53.450;15.496;2023-03-25T15:06:28;98240.22;;;8.65;100.00
25722;BME280;13578;53.450;15.496;2023-03-25T15:09:31;98220.69;;;8.60;100.00
25722;BME280;13578;53.450;15.496;2023-03-25T15:12:36;98241.41;;;8.63;100.00
25722;BME280;13578;53.450;15.496;2023-03-25T15:25:11;98243.09;;;9.06;100.00
25722;BME280;13578;53.450;15.496;2023-03-25T15:38:49;98241.28;;;8.72;100.00
25722;BME280;13578;53.450;15.496;2023-03-25T15:42:18;98241.19;;;8.56;100.00
25722;BME280;13578;53.450;15.496;2023-03-25T15:55:11;98232.28;;;8.54;100.00
25722;BME280;13578;53.450;15.496;2023-03-25T16:01:48;98233.22;;;8.45;100.00
25722;BME280;13578;53.450;15.496;2023-03-25T16:04:50;98254.03;;;8.37;100.00
25722;BME280;13578;53.450;15.496;2023-03-25T16:07:52;98303.50;;;8.26;100.00
25722;BME280;13578;53.450;15.496;2023-03-25T16:10:53;98273.31;;;7.47;100.00
25722;BME280;13578;53.450;15.496;2023-03-25T16:14:21;98249.44;;;6.95;100.00
25722;BME280;13578;53.450;15.496;2023-03-25T16:17:29;98278.72;;;6.93;100.00
25722;BME280;13578;53.450;15.496;2023-03-25T16:20:33;98255.13;;;7.02;100.00
25722;BME280;13578;53.450;15.496;2023-03-25T16:23:35;98259.09;;;7.07;100.00
25722;BME280;13578;53.450;15.496;2023-03-25T16:26:46;98250.00;;;7.17;100.00
25722;BME280;13578;53.450;15.496;2023-03-25T16:29:49;98244.84;;;7.13;100.00
25722;BME280;13578;53.450;15.496;2023-03-25T16:32:50;98243.44;;;6.91;100.00
25722;BME280;13578;53.450;15.496;2023-03-25T16:39:03;98251.25;;;6.76;100.00
25722;BME280;13578;53.450;15.496;2023-03-25T16:42:16;98233.59;;;6.80;100.00
25722;BME280;13578;53.450;15.496;2023-03-25T16:45:18;98246.97;;;6.74;100.00
25722;BME280;13578;53.450;15.496;2023-03-25T16:48:29;98248.13;;;6.71;100.00
25722;BME280;13578;53.450;15.496;2023-03-25T16:51:32;98250.34;;;6.58;100.00
25722;BME280;13578;53.450;15.496;2023-03-25T16:57:46;98249.09;;;6.52;100.00
25722;BME280;13578;53.450;15.496;2023-03-25T17:00:49;98248.13;;;6.43;100.00
25722;BME280;13578;53.450;15.496;2023-03-25T17:03:50;98261.88;;;6.51;100.00
25722;BME280;13578;53.450;15.496;2023-03-25T17:06:59;98251.69;;;6.44;100.00
25722;BME280;13578;53.450;15.496;2023-03-25T17:10:01;98245.00;;;6.38;100.00
25722;BME280;13578;53.450;15.496;2023-03-25T17:13:08;98245.56;;;6.32;100.00
25722;BME280;13578;53.450;15.496;2023-03-25T17:16:10;98269.22;;;6.41;100.00
25722;BME280;13578;53.450;15.496;2023-03-25T17:19:12;98261.22;;;6.30;100.00
25722;BME280;13578;53.450;15.496;2023-03-25T17:22:25;98256.09;;;6.17;100.00
25722;BME280;13578;53.450;15.496;2023-03-25T17:25:33;98253.94;;;6.20;100.00
25722;BME280;13578;53.450;15.496;2023-03-25T17:28:42;98246.63;;;6.21;100.00
25722;BME280;13578;53.450;15.496;2023-03-25T17:31:54;98235.19;;;6.08;100.00
25722;BME280;13578;53.450;15.496;2023-03-25T17:35:00;98236.75;;;6.10;100.00
25722;BME280;13578;53.450;15.496;2023-03-25T17:38:01;98236.06;;;6.08;100.00
25722;BME280;13578;53.450;15.496;2023-03-25T17:41:05;98248.09;;;6.15;100.00
25722;BME280;13578;53.450;15.496;2023-03-25T17:44:06;98239.94;;;6.06;100.00
25722;BME280;13578;53.450;15.496;2023-03-25T17:47:12;98243.53;;;6.06;100.00
25722;BME280;13578;53.450;15.496;2023-03-25T17:50:16;98236.19;;;6.07;100.00
25722;BME280;13578;53.450;15.496;2023-03-25T17:53:18;98234.78;;;6.02;100.00
25722;BME280;13578;53.450;15.496;2023-03-25T17:56:25;98242.53;;;6.07;100.00
25722;BME280;13578;53.450;15.496;2023-03-25T17:59:26;98219.59;;;6.00;100.00
25722;BME280;13578;53.450;15.496;2023-03-25T18:02:27;98230.91;;;6.05;100.00
25722;BME280;13578;53.450;15.496;2023-03-25T18:05:28;98231.78;;;6.06;100.00
25722;BME280;13578;53.450;15.496;2023-03-25T18:08:28;98218.72;;;5.99;100.00
25722;BME280;13578;53.450;15.496;2023-03-25T18:11:29;98222.34;;;6.00;100.00
25722;BME280;13578;53.450;15.496;2023-03-25T18:14:30;98205.56;;;5.95;100.00
25722;BME280;13578;53.450;15.496;2023-03-25T18:17:30;98220.31;;;6.02;100.00
25722;BME280;13578;53.450;15.496;2023-03-25T18:20:34;98211.00;;;5.95;100.00
25722;BME280;13578;53.450;15.496;2023-03-25T18:23:35;98214.44;;;5.87;100.00
25722;BME280;13578;53.450;15.496;2023-03-25T18:26:35;98211.00;;;5.85;100.00
25722;BME280;13578;53.450;15.496;2023-03-25T18:29:37;98211.16;;;5.83;100.00
25722;BME280;13578;53.450;15.496;2023-03-25T18:32:39;98217.59;;;5.82;100.00
25722;BME280;13578;53.450;15.496;2023-03-25T18:35:39;98230.50;;;5.80;100.00
25722;BME280;13578;53.450;15.496;2023-03-25T18:38:41;98226.63;;;5.93;100.00
25722;BME280;13578;53.450;15.496;2023-03-25T18:41:42;98231.91;;;5.94;100.00
25722;BME280;13578;53.450;15.496;2023-03-25T18:44:43;98225.06;;;6.00;100.00
25722;BME280;13578;53.450;15.496;2023-03-25T18:47:44;98229.47;;;5.91;100.00
25722;BME280;13578;53.450;15.496;2023-03-25T18:50:48;98227.34;;;6.04;100.00
25722;BME280;13578;53.450;15.496;2023-03-25T18:53:51;98213.28;;;5.99;100.00
25722;BME280;13578;53.450;15.496;2023-03-25T18:56:52;98214.84;;;5.92;100.00
25722;BME280;13578;53.450;15.496;2023-03-25T18:59:52;98204.56;;;5.86;100.00